Aviation Digital Data Service (ADDS)

Output produced by METARs form (0056 UTC 21 October 2017)
found at http://www.aviationweather.gov/adds/metars/
 
KBTP 202356Z AUTO 00000KT 10SM CLR 13/04 A3024 RMK AO2 SLP251 T01280039 10211 20128 56002
KBTP 202256Z AUTO 00000KT 10SM CLR 16/03 A3024 RMK AO2 SLP249 T01610033
KBTP 202056Z AUTO 18003KT 10SM CLR 21/03 A3025 RMK AO2 SLP249 T02110028 56008
KBTP 201956Z AUTO VRB03KT 10SM CLR 21/02 A3026 RMK AO2 SLP250 T02060017
KBTP 201856Z AUTO 01003KT 4SM HZ CLR 20/02 A3026 RMK AO2 SLP253 T02000017
KBTP 201756Z AUTO 00000KT 10SM CLR 19/01 A3028 RMK AO2 SLP257 T01890011 10194 20061 58017
KBTP 201656Z AUTO 02005KT 10SM CLR 18/01 A3030 RMK AO2 SLP266 T01830006
KBTP 201556Z AUTO VRB03KT 10SM CLR 17/05 A3032 RMK AO2 SLP273 T01720050
KBTP 201456Z AUTO 03005KT 10SM CLR 16/06 A3033 RMK AO2 SLP275 T01560061 51014
KBTP 201356Z AUTO 00000KT 10SM CLR 12/09 A3033 RMK AO2 SLP276 T01220094
KBTP 201256Z AUTO 00000KT 5SM BR CLR 09/08 A3032 RMK AO2 SLP274 T00890083
KBTP 201229Z AUTO 00000KT 3SM BR CLR 06/06 A3030 RMK AO2
KBTP 201226Z AUTO 00000KT 1 1/4SM BR CLR 06/06 A3030 RMK AO2 VIS 1/4V5
KBTP 201216Z AUTO 25003KT 3/4SM BR CLR 06/06 A3029 RMK AO2 VIS 1/4V2 1/2 RVRNO
KBTP 201156Z AUTO 00000KT 1/4SM FG CLR 07/07 A3029 RMK AO2 SLP264 T00670067 10111 20061 51021 RVRNO
KBTP 201127Z AUTO 00000KT 1/4SM FG CLR 07/06 A3028 RMK AO2 VIS M1/4V5 RVRNO
KBTP 201125Z AUTO 00000KT 1 1/4SM BR CLR 07/06 A3027 RMK AO2 VIS 1/4V5
KBTP 201056Z AUTO 00000KT 4SM BR CLR 07/07 A3027 RMK AO2 SLP257 T00670067
KBTP 201048Z AUTO 00000KT 3SM BR CLR 07/06 A3026 RMK AO2
KBTP 201041Z AUTO 00000KT 1SM BR CLR 07/07 A3026 RMK AO2 VIS 1/2V5 RVRNO
KBTP 201034Z AUTO 00000KT 1/2SM FG CLR 07/07 A3026 RMK AO2 VIS 1/4V1 1/4 RVRNO
KBTP 201025Z AUTO 00000KT 3/4SM BR CLR 07/07 A3026 RMK AO2 VIS 1/4V4 RVRNO
KBTP 201011Z AUTO 00000KT 1 3/4SM BR CLR 07/07 A3025 RMK AO2 VIS 3/4V5 TSNO
KBTP 200956Z AUTO 00000KT 7SM CLR 08/07 A3025 RMK AO2 SLP248 T00780072
KBTP 200856Z AUTO 00000KT 10SM CLR 08/07 A3022 RMK AO2 SLP240 T00830072 53006
KBTP 200756Z AUTO 00000KT 10SM CLR 10/08 A3021 RMK AO2 SLP235 T01000078
KBTP 200656Z AUTO 00000KT 10SM CLR 11/08 A3020 RMK AO2 SLP231 T01060083
KBTP 200556Z AUTO 00000KT 10SM CLR 11/08 A3020 RMK AO2 SLP232 T01110078 10167 20106 50007
KBTP 200456Z AUTO 00000KT 10SM CLR 12/08 A3020 RMK AO2 SLP233 T01170078
KBTP 200356Z AUTO 24005KT 10SM CLR 13/08 A3019 RMK AO2 SLP228 T01330078
KBTP 200256Z AUTO 23003KT 10SM CLR 14/08 A3018 RMK AO2 SLP224 T01440078 53002
KBTP 200156Z AUTO 22005KT 10SM CLR 15/08 A3018 RMK AO2 SLP224 T01500083